sensor_id;sensor_type;location;lat;lon;timestamp;pressure;altitude;pressure_sealevel;temperature;humidity
3082;BME280;1551;51.046;7.010;2023-07-31T00:00:53;100560.78;;;18.43;92.31
3082;BME280;1551;51.046;7.010;2023-07-31T00:03:42;100559.81;;;18.45;92.58
3082;BME280;1551;51.046;7.010;2023-07-31T00:06:31;100555.41;;;18.47;92.54
3082;BME280;1551;51.046;7.010;2023-07-31T00:09:20;100558.53;;;18.56;92.31
3082;BME280;1551;51.046;7.010;2023-07-31T00:12:09;100556.34;;;18.65;92.06
3082;BME280;1551;51.046;7.010;2023-07-31T00:14:58;100552.22;;;18.61;91.46
3082;BME280;1551;51.046;7.010;2023-07-31T00:17:47;100560.69;;;18.65;91.30
3082;BME280;1551;51.046;7.010;2023-07-31T00:20:36;100563.16;;;18.68;90.98
3082;BME280;1551;51.046;7.010;2023-07-31T00:23:25;100556.47;;;18.62;90.66
3082;BME280;1551;51.046;7.010;2023-07-31T00:26:13;100562.31;;;18.67;90.66
3082;BME280;1551;51.046;7.010;2023-07-31T00:29:02;100557.97;;;18.68;90.05
3082;BME280;1551;51.046;7.010;2023-07-31T00:31:53;100558.06;;;18.66;89.90
3082;BME280;1551;51.046;7.010;2023-07-31T00:34:42;100552.56;;;18.72;89.91
3082;BME280;1551;51.046;7.010;2023-07-31T00:37:31;100558.06;;;18.66;89.56
3082;BME280;1551;51.046;7.010;2023-07-31T00:40:20;100547.50;;;18.69;89.67
3082;BME280;1551;51.046;7.010;2023-07-31T00:43:08;100556.78;;;18.75;89.19
3082;BME280;1551;51.046;7.010;2023-07-31T00:45:58;100559.59;;;18.70;88.94
3082;BME280;1551;51.046;7.010;2023-07-31T00:48:48;100554.19;;;18.75;89.01
3082;BME280;1551;51.046;7.010;2023-07-31T00:51:37;100544.03;;;18.70;88.69
3082;BME280;1551;51.046;7.010;2023-07-31T00:54:26;100539.75;;;18.69;88.66
3082;BME280;1551;51.046;7.010;2023-07-31T00:57:15;100543.09;;;18.71;88.39
3082;BME280;1551;51.046;7.010;2023-07-31T01:00:05;100539.69;;;18.71;88.63
3082;BME280;1551;51.046;7.010;2023-07-31T01:02:54;100536.25;;;18.70;88.06
3082;BME280;1551;51.046;7.010;2023-07-31T01:06:22;100524.81;;;18.74;88.06
3082;BME280;1551;51.046;7.010;2023-07-31T01:12:34;100517.81;;;18.76;87.32
3082;BME280;1551;51.046;7.010;2023-07-31T01:15:26;100519.75;;;18.71;87.44
3082;BME280;1551;51.046;7.010;2023-07-31T01:18:15;100514.75;;;18.68;86.97
3082;BME280;1551;51.046;7.010;2023-07-31T01:21:41;100522.22;;;18.74;86.63
3082;BME280;1551;51.046;7.010;2023-07-31T01:24:54;100531.69;;;18.75;86.51
3082;BME280;1551;51.046;7.010;2023-07-31T01:28:04;100525.88;;;18.70;86.08
3082;BME280;1551;51.046;7.010;2023-07-31T01:30:55;100514.56;;;18.71;85.74
3082;BME280;1551;51.046;7.010;2023-07-31T01:33:48;100516.06;;;18.77;85.67
3082;BME280;1551;51.046;7.010;2023-07-31T01:36:38;100529.31;;;18.71;85.08
3082;BME280;1551;51.046;7.010;2023-07-31T01:39:27;100525.78;;;18.72;84.86
3082;BME280;1551;51.046;7.010;2023-07-31T01:42:16;100536.25;;;18.70;84.52
3082;BME280;1551;51.046;7.010;2023-07-31T01:45:06;100516.56;;;18.66;84.59
3082;BME280;1551;51.046;7.010;2023-07-31T01:47:55;100529.88;;;18.77;84.27
3082;BME280;1551;51.046;7.010;2023-07-31T01:50:44;100520.25;;;18.79;84.53
3082;BME280;1551;51.046;7.010;2023-07-31T01:53:33;100514.09;;;18.82;84.09
3082;BME280;1551;51.046;7.010;2023-07-31T01:56:22;100513.47;;;18.77;83.96
3082;BME280;1551;51.046;7.010;2023-07-31T01:59:11;100513.03;;;18.86;84.07
3082;BME280;1551;51.046;7.010;2023-07-31T02:02:00;100515.91;;;18.98;83.68
3082;BME280;1551;51.046;7.010;2023-07-31T02:04:49;100513.53;;;18.94;83.52
3082;BME280;1551;51.046;7.010;2023-07-31T02:07:38;100516.94;;;18.94;83.17
3082;BME280;1551;51.046;7.010;2023-07-31T02:10:27;100514.75;;;19.04;83.69
3082;BME280;1551;51.046;7.010;2023-07-31T02:13:16;100506.84;;;19.07;83.11
3082;BME280;1551;51.046;7.010;2023-07-31T02:16:05;100500.16;;;19.01;82.54
3082;BME280;1551;51.046;7.010;2023-07-31T02:18:54;100498.84;;;18.93;82.80
3082;BME280;1551;51.046;7.010;2023-07-31T02:21:43;100476.94;;;18.81;83.08
3082;BME280;1551;51.046;7.010;2023-07-31T02:24:31;100474.56;;;18.77;83.16
3082;BME280;1551;51.046;7.010;2023-07-31T02:27:20;100488.94;;;18.84;83.77
3082;BME280;1551;51.046;7.010;2023-07-31T02:30:12;100499.84;;;18.90;83.63
3082;BME280;1551;51.046;7.010;2023-07-31T02:33:01;100481.78;;;18.89;83.90
3082;BME280;1551;51.046;7.010;2023-07-31T02:35:51;100490.31;;;18.91;83.88
3082;BME280;1551;51.046;7.010;2023-07-31T02:38:40;100488.34;;;18.96;83.54
3082;BME280;1551;51.046;7.010;2023-07-31T02:41:29;100480.56;;;18.96;83.81
3082;BME280;1551;51.046;7.010;2023-07-31T02:44:18;100490.00;;;18.97;84.02
3082;BME280;1551;51.046;7.010;2023-07-31T02:47:07;100482.41;;;18.94;84.11
3082;BME280;1551;51.046;7.010;2023-07-31T02:49:57;100486.66;;;18.95;83.91
3082;BME280;1551;51.046;7.010;2023-07-31T02:52:46;100467.28;;;19.02;83.88
3082;BME280;1551;51.046;7.010;2023-07-31T02:55:35;100480.81;;;19.08;83.77
3082;BME280;1551;51.046;7.010;2023-07-31T02:58:25;100471.44;;;19.06;83.68
3082;BME280;1551;51.046;7.010;2023-07-31T03:01:14;100471.44;;;19.06;83.70
3082;BME280;1551;51.046;7.010;2023-07-31T03:04:03;100472.25;;;19.06;83.81
3082;BME280;1551;51.046;7.010;2023-07-31T03:06:51;100456.38;;;18.95;83.89
3082;BME280;1551;51.046;7.010;2023-07-31T03:09:42;100469.84;;;19.03;83.96
3082;BME280;1551;51.046;7.010;2023-07-31T03:12:30;100448.69;;;18.94;83.49
3082;BME280;1551;51.046;7.010;2023-07-31T03:15:19;100456.91;;;19.02;83.83
3082;BME280;1551;51.046;7.010;2023-07-31T03:18:09;100421.28;;;18.88;83.73
3082;BME280;1551;51.046;7.010;2023-07-31T03:20:58;100458.59;;;19.03;83.49
3082;BME280;1551;51.046;7.010;2023-07-31T03:23:47;100451.66;;;19.03;83.70
3082;BME280;1551;51.046;7.010;2023-07-31T03:26:36;100428.47;;;19.00;83.59
3082;BME280;1551;51.046;7.010;2023-07-31T03:29:25;100453.06;;;19.10;83.54
3082;BME280;1551;51.046;7.010;2023-07-31T03:32:15;100436.03;;;19.05;83.77
3082;BME280;1551;51.046;7.010;2023-07-31T03:35:04;100437.84;;;19.03;83.53
3082;BME280;1551;51.046;7.010;2023-07-31T03:37:54;100428.91;;;18.91;83.66
3082;BME280;1551;51.046;7.010;2023-07-31T03:40:43;100442.28;;;19.01;83.74
3082;BME280;1551;51.046;7.010;2023-07-31T03:43:33;100419.00;;;18.99;83.43
3082;BME280;1551;51.046;7.010;2023-07-31T03:46:24;100423.06;;;19.05;83.21
3082;BME280;1551;51.046;7.010;2023-07-31T03:49:13;100430.09;;;19.20;83.73
3082;BME280;1551;51.046;7.010;2023-07-31T03:52:02;100387.25;;;18.94;82.68
3082;BME280;1551;51.046;7.010;2023-07-31T03:54:52;100421.84;;;19.12;82.93
3082;BME280;1551;51.046;7.010;2023-07-31T03:57:41;100437.19;;;19.16;83.12
3082;BME280;1551;51.046;7.010;2023-07-31T04:00:30;100439.84;;;19.15;83.52
3082;BME280;1551;51.046;7.010;2023-07-31T04:03:19;100425.50;;;19.25;83.52
3082;BME280;1551;51.046;7.010;2023-07-31T04:06:08;100399.38;;;19.11;83.13
3082;BME280;1551;51.046;7.010;2023-07-31T04:08:57;100434.50;;;19.18;83.12
3082;BME280;1551;51.046;7.010;2023-07-31T04:11:46;100417.94;;;19.20;83.37
3082;BME280;1551;51.046;7.010;2023-07-31T04:14:35;100435.09;;;19.23;83.07
3082;BME280;1551;51.046;7.010;2023-07-31T04:17:24;100415.94;;;19.26;83.41
3082;BME280;1551;51.046;7.010;2023-07-31T04:20:13;100419.63;;;19.21;83.45
3082;BME280;1551;51.046;7.010;2023-07-31T04:23:02;100415.44;;;19.19;83.24
3082;BME280;1551;51.046;7.010;2023-07-31T04:25:51;100414.34;;;19.23;83.59
3082;BME280;1551;51.046;7.010;2023-07-31T04:28:40;100419.16;;;19.13;83.45
3082;BME280;1551;51.046;7.010;2023-07-31T04:31:30;100414.72;;;19.15;83.52
3082;BME280;1551;51.046;7.010;2023-07-31T04:34:19;100413.44;;;19.07;83.76
3082;BME280;1551;51.046;7.010;2023-07-31T04:37:08;100411.91;;;19.03;84.23
3082;BME280;1551;51.046;7.010;2023-07-31T04:39:57;100410.31;;;19.17;84.42
3082;BME280;1551;51.046;7.010;2023-07-31T04:42:46;100413.34;;;19.08;84.23
3082;BME280;1551;51.046;7.010;2023-07-31T04:45:35;100406.72;;;19.03;84.82
3082;BME280;1551;51.046;7.010;2023-07-31T04:48:24;100406.09;;;18.98;84.96
3082;BME280;1551;51.046;7.010;2023-07-31T04:51:13;100413.34;;;19.08;85.37
3082;BME280;1551;51.046;7.010;2023-07-31T04:54:02;100402.97;;;19.08;85.09
3082;BME280;1551;51.046;7.010;2023-07-31T04:56:51;100401.75;;;19.15;85.22
3082;BME280;1551;51.046;7.010;2023-07-31T04:59:41;100403.53;;;19.15;85.15
3082;BME280;1551;51.046;7.010;2023-07-31T05:02:30;100401.75;;;19.15;84.96
3082;BME280;1551;51.046;7.010;2023-07-31T05:05:19;100399.94;;;19.17;85.02
3082;BME280;1551;51.046;7.010;2023-07-31T05:08:08;100377.19;;;19.22;84.61
3082;BME280;1551;51.046;7.010;2023-07-31T05:10:57;100387.72;;;19.37;84.58
3082;BME280;1551;51.046;7.010;2023-07-31T05:13:45;100383.47;;;19.36;84.47
3082;BME280;1551;51.046;7.010;2023-07-31T05:16:34;100367.41;;;19.45;84.21
3082;BME280;1551;51.046;7.010;2023-07-31T05:19:24;100374.72;;;19.54;84.07
3082;BME280;1551;51.046;7.010;2023-07-31T05:22:13;100366.56;;;19.61;84.06
3082;BME280;1551;51.046;7.010;2023-07-31T05:25:02;100376.78;;;19.64;83.62
3082;BME280;1551;51.046;7.010;2023-07-31T05:27:50;100379.81;;;19.72;83.00
3082;BME280;1551;51.046;7.010;2023-07-31T05:30:39;100369.66;;;19.68;82.85
3082;BME280;1551;51.046;7.010;2023-07-31T05:33:28;100364.06;;;19.75;82.13
3082;BME280;1551;51.046;7.010;2023-07-31T05:36:18;100345.94;;;19.58;81.74
3082;BME280;1551;51.046;7.010;2023-07-31T05:39:07;100358.44;;;19.67;81.51
3082;BME280;1551;51.046;7.010;2023-07-31T05:41:57;100344.38;;;19.71;81.19
3082;BME280;1551;51.046;7.010;2023-07-31T05:44:46;100341.69;;;19.73;80.74
3082;BME280;1551;51.046;7.010;2023-07-31T05:47:36;100339.25;;;19.70;80.72
3082;BME280;1551;51.046;7.010;2023-07-31T05:50:25;100339.34;;;19.68;80.12
3082;BME280;1551;51.046;7.010;2023-07-31T05:53:14;100323.75;;;19.68;80.46
3082;BME280;1551;51.046;7.010;2023-07-31T05:56:03;100317.88;;;19.65;80.03
3082;BME280;1551;51.046;7.010;2023-07-31T05:58:52;100321.41;;;19.64;80.11
3082;BME280;1551;51.046;7.010;2023-07-31T06:01:41;100324.06;;;19.62;80.04
3082;BME280;1551;51.046;7.010;2023-07-31T06:04:30;100332.69;;;19.63;79.84
3082;BME280;1551;51.046;7.010;2023-07-31T06:07:19;100331.19;;;19.59;80.04
3082;BME280;1551;51.046;7.010;2023-07-31T06:10:08;100323.50;;;19.57;80.41
3082;BME280;1551;51.046;7.010;2023-07-31T06:12:58;100334.69;;;19.42;80.86
3082;BME280;1551;51.046;7.010;2023-07-31T06:15:47;100336.03;;;19.32;82.03
3082;BME280;1551;51.046;7.010;2023-07-31T06:18:36;100339.28;;;19.20;83.10
3082;BME280;1551;51.046;7.010;2023-07-31T06:21:25;100349.09;;;19.13;84.02
3082;BME280;1551;51.046;7.010;2023-07-31T06:24:14;100335.94;;;19.01;84.91
3082;BME280;1551;51.046;7.010;2023-07-31T06:27:08;100326.53;;;18.98;86.23
3082;BME280;1551;51.046;7.010;2023-07-31T06:29:57;100327.38;;;18.99;86.68
3082;BME280;1551;51.046;7.010;2023-07-31T06:32:46;100331.13;;;18.93;87.10
3082;BME280;1551;51.046;7.010;2023-07-31T06:35:35;100320.97;;;18.89;87.51
3082;BME280;1551;51.046;7.010;2023-07-31T06:38:25;100318.25;;;18.92;88.12
3082;BME280;1551;51.046;7.010;2023-07-31T06:41:14;100313.81;;;18.94;88.35
3082;BME280;1551;51.046;7.010;2023-07-31T06:44:03;100320.44;;;18.99;88.31
3082;BME280;1551;51.046;7.010;2023-07-31T06:46:52;100315.25;;;18.99;89.27
3082;BME280;1551;51.046;7.010;2023-07-31T06:49:41;100290.69;;;18.89;89.16
3082;BME280;1551;51.046;7.010;2023-07-31T06:52:30;100310.59;;;19.06;89.66
3082;BME280;1551;51.046;7.010;2023-07-31T06:55:20;100309.16;;;19.00;89.67
3082;BME280;1551;51.046;7.010;2023-07-31T06:58:10;100316.13;;;19.15;89.44
3082;BME280;1551;51.046;7.010;2023-07-31T07:00:59;100322.47;;;19.27;89.30
3082;BME280;1551;51.046;7.010;2023-07-31T07:03:48;100319.66;;;19.32;89.42
3082;BME280;1551;51.046;7.010;2023-07-31T07:06:39;100319.09;;;19.25;89.40
3082;BME280;1551;51.046;7.010;2023-07-31T07:09:28;100317.94;;;19.31;89.04
3082;BME280;1551;51.046;7.010;2023-07-31T07:12:17;100326.88;;;19.25;88.97
3082;BME280;1551;51.046;7.010;2023-07-31T07:15:06;100311.53;;;19.20;88.79
3082;BME280;1551;51.046;7.010;2023-07-31T07:17:55;100315.34;;;19.31;88.94
3082;BME280;1551;51.046;7.010;2023-07-31T07:20:53;100295.22;;;19.18;88.75
3082;BME280;1551;51.046;7.010;2023-07-31T07:23:42;100288.28;;;19.19;89.13
3082;BME280;1551;51.046;7.010;2023-07-31T07:26:32;100308.22;;;19.36;89.12
3082;BME280;1551;51.046;7.010;2023-07-31T07:29:21;100312.22;;;19.41;89.04
3082;BME280;1551;51.046;7.010;2023-07-31T07:32:10;100315.91;;;19.37;88.67
3082;BME280;1551;51.046;7.010;2023-07-31T07:35:00;100314.38;;;19.33;88.78
3082;BME280;1551;51.046;7.010;2023-07-31T07:37:49;100300.88;;;19.27;89.21
3082;BME280;1551;51.046;7.010;2023-07-31T07:40:39;100306.31;;;19.22;89.55
3082;BME280;1551;51.046;7.010;2023-07-31T07:43:28;100313.63;;;19.14;89.79
3082;BME280;1551;51.046;7.010;2023-07-31T07:46:17;100289.91;;;18.87;90.50
3082;BME280;1551;51.046;7.010;2023-07-31T07:49:06;100309.06;;;19.02;91.16
3082;BME280;1551;51.046;7.010;2023-07-31T07:51:55;100306.63;;;18.99;91.42
3082;BME280;1551;51.046;7.010;2023-07-31T07:54:44;100318.81;;;18.97;91.78
3082;BME280;1551;51.046;7.010;2023-07-31T07:57:33;100311.38;;;18.91;91.85
3082;BME280;1551;51.046;7.010;2023-07-31T08:00:22;100308.69;;;18.92;92.80
3082;BME280;1551;51.046;7.010;2023-07-31T08:03:11;100308.38;;;18.98;93.42
3082;BME280;1551;51.046;7.010;2023-07-31T08:06:01;100318.16;;;19.10;93.41
3082;BME280;1551;51.046;7.010;2023-07-31T08:08:50;100322.88;;;19.02;93.31
3082;BME280;1551;51.046;7.010;2023-07-31T08:11:39;100320.38;;;19.01;93.68
3082;BME280;1551;51.046;7.010;2023-07-31T08:14:28;100318.81;;;18.97;93.91
3082;BME280;1551;51.046;7.010;2023-07-31T08:17:17;100304.66;;;18.87;94.70
3082;BME280;1551;51.046;7.010;2023-07-31T08:20:07;100305.63;;;19.01;94.73
3082;BME280;1551;51.046;7.010;2023-07-31T08:22:56;100302.22;;;19.01;94.40
3082;BME280;1551;51.046;7.010;2023-07-31T08:25:45;100292.34;;;18.73;93.68
3082;BME280;1551;51.046;7.010;2023-07-31T08:28:33;100303.19;;;18.81;93.46
3082;BME280;1551;51.046;7.010;2023-07-31T08:31:23;100280.84;;;18.79;92.94
3082;BME280;1551;51.046;7.010;2023-07-31T08:34:12;100274.91;;;18.77;92.27
3082;BME280;1551;51.046;7.010;2023-07-31T08:37:01;100276.03;;;18.88;92.21
3082;BME280;1551;51.046;7.010;2023-07-31T08:39:50;100275.66;;;18.96;91.30
3082;BME280;1551;51.046;7.010;2023-07-31T08:42:47;100269.47;;;18.98;91.98
3082;BME280;1551;51.046;7.010;2023-07-31T08:45:37;100273.25;;;19.08;92.03
3082;BME280;1551;51.046;7.010;2023-07-31T08:48:27;100261.38;;;19.04;91.63
3082;BME280;1551;51.046;7.010;2023-07-31T08:51:16;100263.66;;;19.10;91.45
3082;BME280;1551;51.046;7.010;2023-07-31T08:54:05;100267.38;;;19.22;91.80
3082;BME280;1551;51.046;7.010;2023-07-31T08:56:54;100265.03;;;19.17;91.26
3082;BME280;1551;51.046;7.010;2023-07-31T08:59:45;100266.16;;;19.12;91.46
3082;BME280;1551;51.046;7.010;2023-07-31T09:02:45;100269.09;;;19.06;91.31
3082;BME280;1551;51.046;7.010;2023-07-31T09:05:36;100257.03;;;19.05;91.28
3082;BME280;1551;51.046;7.010;2023-07-31T09:08:31;100266.28;;;19.26;91.67
3082;BME280;1551;51.046;7.010;2023-07-31T09:11:21;100281.84;;;19.43;91.20
3082;BME280;1551;51.046;7.010;2023-07-31T09:14:10;100276.91;;;19.39;90.84
3082;BME280;1551;51.046;7.010;2023-07-31T09:16:59;100274.72;;;19.47;90.86
3082;BME280;1551;51.046;7.010;2023-07-31T09:19:48;100277.72;;;19.39;90.40
3082;BME280;1551;51.046;7.010;2023-07-31T09:22:38;100274.13;;;19.42;90.51
3082;BME280;1551;51.046;7.010;2023-07-31T09:25:27;100276.34;;;19.32;90.06
3082;BME280;1551;51.046;7.010;2023-07-31T09:28:16;100281.25;;;19.21;89.62
3082;BME280;1551;51.046;7.010;2023-07-31T09:31:05;100278.34;;;19.27;89.46
3082;BME280;1551;51.046;7.010;2023-07-31T09:33:54;100271.16;;;19.32;89.63
3082;BME280;1551;51.046;7.010;2023-07-31T09:36:46;100266.03;;;19.48;89.07
3082;BME280;1551;51.046;7.010;2023-07-31T09:39:46;100263.94;;;19.54;88.61
3082;BME280;1551;51.046;7.010;2023-07-31T09:42:35;100254.81;;;19.47;88.34
3082;BME280;1551;51.046;7.010;2023-07-31T09:45:24;100246.97;;;19.64;88.81
3082;BME280;1551;51.046;7.010;2023-07-31T09:48:18;100235.63;;;19.65;87.34
3082;BME280;1551;51.046;7.010;2023-07-31T09:51:07;100252.06;;;19.66;87.10
3082;BME280;1551;51.046;7.010;2023-07-31T09:53:57;100232.38;;;19.77;87.22
3082;BME280;1551;51.046;7.010;2023-07-31T09:56:47;100243.94;;;19.87;86.74
3082;BME280;1551;51.046;7.010;2023-07-31T09:59:37;100239.50;;;19.89;86.40
3082;BME280;1551;51.046;7.010;2023-07-31T10:02:26;100240.06;;;19.95;86.50
3082;BME280;1551;51.046;7.010;2023-07-31T10:05:16;100232.16;;;20.12;86.54
3082;BME280;1551;51.046;7.010;2023-07-31T10:08:07;100224.03;;;20.18;86.11
3082;BME280;1551;51.046;7.010;2023-07-31T10:10:59;100227.03;;;20.26;85.63
3082;BME280;1551;51.046;7.010;2023-07-31T10:13:48;100222.84;;;20.23;85.48
3082;BME280;1551;51.046;7.010;2023-07-31T10:16:38;100222.63;;;20.28;85.92
3082;BME280;1551;51.046;7.010;2023-07-31T10:19:29;100220.47;;;20.19;85.08
3082;BME280;1551;51.046;7.010;2023-07-31T10:22:20;100223.28;;;20.16;85.10
3082;BME280;1551;51.046;7.010;2023-07-31T10:25:09;100205.69;;;20.05;85.22
3082;BME280;1551;51.046;7.010;2023-07-31T10:27:59;100227.88;;;20.26;84.99
3082;BME280;1551;51.046;7.010;2023-07-31T10:30:49;100231.44;;;20.25;84.79
3082;BME280;1551;51.046;7.010;2023-07-31T10:33:38;100221.09;;;20.24;84.38
3082;BME280;1551;51.046;7.010;2023-07-31T10:36:27;100232.56;;;20.35;83.99
3082;BME280;1551;51.046;7.010;2023-07-31T10:39:46;100229.03;;;20.36;83.49
3082;BME280;1551;51.046;7.010;2023-07-31T10:42:47;100233.81;;;20.28;83.20
3082;BME280;1551;51.046;7.010;2023-07-31T10:45:39;100221.09;;;20.24;83.71
3082;BME280;1551;51.046;7.010;2023-07-31T10:48:33;100222.03;;;20.23;83.64
3082;BME280;1551;51.046;7.010;2023-07-31T10:51:23;100214.63;;;20.31;84.08
3082;BME280;1551;51.046;7.010;2023-07-31T10:54:13;100211.50;;;20.40;84.09
3082;BME280;1551;51.046;7.010;2023-07-31T10:57:19;100214.22;;;20.52;83.69
3082;BME280;1551;51.046;7.010;2023-07-31T11:00:22;100221.09;;;20.53;83.08
3082;BME280;1551;51.046;7.010;2023-07-31T11:03:15;100223.97;;;20.49;82.91
3082;BME280;1551;51.046;7.010;2023-07-31T11:06:04;100220.84;;;20.58;82.96
3082;BME280;1551;51.046;7.010;2023-07-31T11:08:53;100219.59;;;20.49;83.07
3082;BME280;1551;51.046;7.010;2023-07-31T11:11:44;100226.44;;;20.36;83.32
3082;BME280;1551;51.046;7.010;2023-07-31T11:14:33;100224.47;;;20.40;83.59
3082;BME280;1551;51.046;7.010;2023-07-31T11:17:25;100220.56;;;20.63;83.28
3082;BME280;1551;51.046;7.010;2023-07-31T11:20:14;100212.69;;;20.78;83.08
3082;BME280;1551;51.046;7.010;2023-07-31T11:23:08;100204.25;;;20.89;82.18
3082;BME280;1551;51.046;7.010;2023-07-31T11:26:01;100208.25;;;21.08;81.85
3082;BME280;1551;51.046;7.010;2023-07-31T11:28:51;100202.88;;;21.66;80.17
3082;BME280;1551;51.046;7.010;2023-07-31T11:31:43;100212.06;;;21.86;78.83
3082;BME280;1551;51.046;7.010;2023-07-31T11:34:32;100207.97;;;22.09;78.16
3082;BME280;1551;51.046;7.010;2023-07-31T11:37:22;100211.38;;;21.97;76.68
3082;BME280;1551;51.046;7.010;2023-07-31T11:40:11;100211.66;;;21.51;77.13
3082;BME280;1551;51.046;7.010;2023-07-31T11:43:04;100195.41;;;21.34;77.41
3082;BME280;1551;51.046;7.010;2023-07-31T11:45:55;100191.22;;;21.31;77.77
3082;BME280;1551;51.046;7.010;2023-07-31T11:48:45;100188.03;;;21.54;77.38
3082;BME280;1551;51.046;7.010;2023-07-31T11:51:34;100191.53;;;21.67;76.73
3082;BME280;1551;51.046;7.010;2023-07-31T11:54:24;100192.91;;;21.73;75.65
3082;BME280;1551;51.046;7.010;2023-07-31T11:57:13;100194.50;;;21.75;75.18
3082;BME280;1551;51.046;7.010;2023-07-31T12:00:03;100194.97;;;21.68;75.02
3082;BME280;1551;51.046;7.010;2023-07-31T12:02:53;100198.31;;;21.70;74.99
3082;BME280;1551;51.046;7.010;2023-07-31T12:05:42;100189.94;;;21.65;74.69
3082;BME280;1551;51.046;7.010;2023-07-31T12:08:31;100174.72;;;21.59;74.74
3082;BME280;1551;51.046;7.010;2023-07-31T12:11:20;100171.13;;;21.47;74.95
3082;BME280;1551;51.046;7.010;2023-07-31T12:14:26;100166.69;;;21.62;74.87
3082;BME280;1551;51.046;7.010;2023-07-31T12:17:15;100172.16;;;21.71;74.93
3082;BME280;1551;51.046;7.010;2023-07-31T12:20:05;100176.09;;;21.64;74.94
3082;BME280;1551;51.046;7.010;2023-07-31T12:22:56;100145.84;;;21.62;74.76
3082;BME280;1551;51.046;7.010;2023-07-31T12:25:46;100179.16;;;21.71;74.74
3082;BME280;1551;51.046;7.010;2023-07-31T12:28:43;100184.38;;;21.71;74.93
3082;BME280;1551;51.046;7.010;2023-07-31T12:31:33;100167.78;;;21.72;74.92
3082;BME280;1551;51.046;7.010;2023-07-31T12:34:23;100185.03;;;21.60;75.03
3082;BME280;1551;51.046;7.010;2023-07-31T12:37:12;100175.19;;;21.51;75.44
3082;BME280;1551;51.046;7.010;2023-07-31T12:40:01;100189.25;;;21.49;75.29
3082;BME280;1551;51.046;7.010;2023-07-31T12:42:53;100176.25;;;21.35;74.99
3082;BME280;1551;51.046;7.010;2023-07-31T12:45:42;100163.78;;;21.40;75.02
3082;BME280;1551;51.046;7.010;2023-07-31T12:48:31;100177.53;;;21.56;74.49
3082;BME280;1551;51.046;7.010;2023-07-31T12:51:20;100188.19;;;21.65;73.91
3082;BME280;1551;51.046;7.010;2023-07-31T12:54:10;100171.59;;;21.66;74.12
3082;BME280;1551;51.046;7.010;2023-07-31T12:56:59;100195.97;;;21.79;73.85
3082;BME280;1551;51.046;7.010;2023-07-31T12:59:48;100162.81;;;21.81;73.89
3082;BME280;1551;51.046;7.010;2023-07-31T13:02:37;100147.16;;;21.96;73.25
3082;BME280;1551;51.046;7.010;2023-07-31T13:05:29;100146.97;;;21.99;73.04
3082;BME280;1551;51.046;7.010;2023-07-31T13:08:18;100148.66;;;22.12;72.94
3082;BME280;1551;51.046;7.010;2023-07-31T13:11:07;100129.88;;;22.07;72.70
3082;BME280;1551;51.046;7.010;2023-07-31T13:13:56;100129.25;;;22.04;72.57
3082;BME280;1551;51.046;7.010;2023-07-31T13:16:45;100123.75;;;22.08;72.80
3082;BME280;1551;51.046;7.010;2023-07-31T13:19:34;100126.03;;;22.25;71.94
3082;BME280;1551;51.046;7.010;2023-07-31T13:22:23;100126.56;;;22.18;72.00
3082;BME280;1551;51.046;7.010;2023-07-31T13:25:12;100129.47;;;22.13;72.17
3082;BME280;1551;51.046;7.010;2023-07-31T13:28:01;100123.22;;;22.03;72.34
3082;BME280;1551;51.046;7.010;2023-07-31T13:30:49;100119.94;;;22.00;72.50
3082;BME280;1551;51.046;7.010;2023-07-31T13:33:38;100113.31;;;22.08;72.02
3082;BME280;1551;51.046;7.010;2023-07-31T13:36:27;100098.09;;;22.15;72.20
3082;BME280;1551;51.046;7.010;2023-07-31T13:39:16;100109.75;;;22.34;71.35
3082;BME280;1551;51.046;7.010;2023-07-31T13:42:07;100096.22;;;22.54;70.43
3082;BME280;1551;51.046;7.010;2023-07-31T13:44:57;100076.38;;;22.90;69.30
3082;BME280;1551;51.046;7.010;2023-07-31T13:47:46;100079.31;;;22.85;68.78
3082;BME280;1551;51.046;7.010;2023-07-31T13:50:35;100088.47;;;22.91;68.87
3082;BME280;1551;51.046;7.010;2023-07-31T13:53:24;100095.66;;;23.00;68.27
3082;BME280;1551;51.046;7.010;2023-07-31T13:56:13;100088.75;;;23.11;67.95
3082;BME280;1551;51.046;7.010;2023-07-31T13:59:02;100081.84;;;23.34;67.79
3082;BME280;1551;51.046;7.010;2023-07-31T14:01:51;100073.38;;;23.67;66.39
3082;BME280;1551;51.046;7.010;2023-07-31T14:04:40;100070.09;;;23.87;65.17
3082;BME280;1551;51.046;7.010;2023-07-31T14:07:29;100070.94;;;23.99;64.68
3082;BME280;1551;51.046;7.010;2023-07-31T14:10:17;100074.75;;;23.94;64.90
3082;BME280;1551;51.046;7.010;2023-07-31T14:13:06;100075.09;;;23.55;65.22
3082;BME280;1551;51.046;7.010;2023-07-31T14:15:55;100077.25;;;23.38;65.45
3082;BME280;1551;51.046;7.010;2023-07-31T14:18:44;100075.78;;;23.10;65.96
3082;BME280;1551;51.046;7.010;2023-07-31T14:21:37;100077.28;;;22.89;66.53
3082;BME280;1551;51.046;7.010;2023-07-31T14:24:25;100066.00;;;22.88;66.81
3082;BME280;1551;51.046;7.010;2023-07-31T14:27:15;100068.97;;;22.58;67.20
3082;BME280;1551;51.046;7.010;2023-07-31T14:30:05;100073.16;;;22.36;68.10
3082;BME280;1551;51.046;7.010;2023-07-31T14:32:54;100072.84;;;22.28;68.34
3082;BME280;1551;51.046;7.010;2023-07-31T14:35:43;100074.00;;;22.24;68.75
3082;BME280;1551;51.046;7.010;2023-07-31T14:38:32;100085.59;;;22.20;68.72
3082;BME280;1551;51.046;7.010;2023-07-31T14:41:22;100078.06;;;22.15;68.91
3082;BME280;1551;51.046;7.010;2023-07-31T14:44:11;100076.81;;;22.08;69.08
3082;BME280;1551;51.046;7.010;2023-07-31T14:47:00;100065.63;;;22.06;69.55
3082;BME280;1551;51.046;7.010;2023-07-31T14:49:49;100046.88;;;21.88;69.34
3082;BME280;1551;51.046;7.010;2023-07-31T14:52:38;100058.13;;;21.89;69.71
3082;BME280;1551;51.046;7.010;2023-07-31T14:55:27;100056.88;;;21.95;69.75
3082;BME280;1551;51.046;7.010;2023-07-31T14:58:15;100035.31;;;22.05;69.72
3082;BME280;1551;51.046;7.010;2023-07-31T15:01:05;100060.44;;;22.31;69.25
3082;BME280;1551;51.046;7.010;2023-07-31T15:03:54;100054.50;;;22.29;68.92
3082;BME280;1551;51.046;7.010;2023-07-31T15:06:43;100045.44;;;22.22;68.83
3082;BME280;1551;51.046;7.010;2023-07-31T15:09:32;100043.03;;;22.19;68.76
3082;BME280;1551;51.046;7.010;2023-07-31T15:12:21;100046.78;;;22.15;68.88
3082;BME280;1551;51.046;7.010;2023-07-31T15:15:11;100045.97;;;22.15;68.95